Time;durP1;ratioP1;P1;durP2;ratioP2;P2;SDS_P1;SDS_P2;PMS_P1;PMS_P2;Temp;Humidity;BMP_temperature;BMP_pressure;BME280_temperature;BME280_humidity;BME280_pressure;Samples;Min_cycle;Max_cycle;Signal;HPM_P1;HPM_P2
2021/04/29 00:04:01;;;;;;;5.10;3.97;;;;;;;13.09;77.45;97603.72;10375273;28;20169;-76
2021/04/29 00:09:20;;;;;;;6.77;3.57;;;;;;;12.96;80.84;97605.75;10374787;28;20204;-77
2021/04/29 00:14:39;;;;;;;4.60;4.13;;;;;;;12.89;85.06;97608.03;10373583;28;20185;-77
2021/04/29 00:19:58;;;;;;;4.47;4.10;;;;;;;12.56;95.34;97614.34;10374658;28;20620;-75
2021/04/29 00:25:17;;;;;;;7.37;4.90;;;;;;;12.37;100.00;97613.38;10373287;28;20184;-77
2021/04/29 00:30:36;;;;;;;9.80;4.07;;;;;;;12.29;100.00;97623.13;10371638;28;20574;-77
2021/04/29 00:35:55;;;;;;;4.63;4.10;;;;;;;12.11;100.00;97617.44;10373665;28;20212;-77
2021/04/29 00:41:14;;;;;;;4.63;4.20;;;;;;;12.02;100.00;97600.81;10374108;28;20188;-76
2021/04/29 00:46:35;;;;;;;4.30;3.70;;;;;;;11.93;100.00;97610.19;10371353;28;20216;-77
2021/04/29 00:51:54;;;;;;;9.27;5.07;;;;;;;11.94;100.00;97602.25;10373330;28;20265;-76
2021/04/29 00:57:13;;;;;;;10.97;6.07;;;;;;;12.04;100.00;97592.84;10358880;28;20181;-77
2021/04/29 01:02:35;;;;;;;4.50;4.00;;;;;;;12.03;100.00;97604.31;10371372;28;20627;-77
2021/04/29 01:07:59;;;;;;;5.40;4.20;;;;;;;11.94;100.00;97599.50;10373442;28;20633;-77
2021/04/29 01:13:28;;;;;;;10.67;5.23;;;;;;;11.92;100.00;97601.13;10373604;28;20188;-77
2021/04/29 01:18:48;;;;;;;6.27;5.67;;;;;;;11.91;100.00;97598.84;10373378;28;20536;-76
2021/04/29 01:24:10;;;;;;;7.70;5.57;;;;;;;11.77;100.00;97596.53;10373428;28;20181;-75
2021/04/29 01:29:31;;;;;;;12.40;6.87;;;;;;;11.75;100.00;97605.22;10371977;28;20288;-76
2021/04/29 01:34:50;;;;;;;9.50;5.90;;;;;;;11.80;100.00;97612.97;10373265;28;20180;-75
2021/04/29 01:40:11;;;;;;;7.30;5.83;;;;;;;11.80;100.00;97607.44;10373264;28;20185;-76
2021/04/29 01:45:30;;;;;;;7.60;6.80;;;;;;;11.73;100.00;97604.13;10372625;28;20571;-77
2021/04/29 01:50:49;;;;;;;8.80;5.60;;;;;;;11.65;100.00;97608.34;10380111;28;20666;-78
2021/04/29 01:56:09;;;;;;;12.57;6.10;;;;;;;11.57;100.00;97618.03;10380106;28;20259;-77
2021/04/29 02:01:29;;;;;;;7.47;5.03;;;;;;;11.51;100.00;97628.78;10378640;28;20177;-78
2021/04/29 02:06:48;;;;;;;7.17;6.17;;;;;;;11.34;100.00;97643.09;10379746;28;20624;-78
2021/04/29 02:12:09;;;;;;;5.27;4.80;;;;;;;11.21;100.00;97636.81;10378988;28;20208;-78
2021/04/29 02:17:34;;;;;;;10.70;6.17;;;;;;;11.20;100.00;97640.78;10378154;28;20185;-77
2021/04/29 02:22:54;;;;;;;13.60;5.83;;;;;;;11.15;100.00;97644.84;10379099;28;20627;-77
2021/04/29 02:28:17;;;;;;;13.83;4.80;;;;;;;11.18;100.00;97640.44;10379159;28;20607;-77
2021/04/29 02:33:37;;;;;;;8.30;5.90;;;;;;;11.14;100.00;97656.28;10379294;28;20628;-77
2021/04/29 02:38:57;;;;;;;8.80;5.70;;;;;;;11.28;100.00;97645.63;10379025;28;20176;-78
2021/04/29 02:44:17;;;;;;;13.20;5.70;;;;;;;11.22;100.00;97652.13;10376986;28;20185;-76
2021/04/29 02:49:35;;;;;;;8.37;6.30;;;;;;;11.19;100.00;97645.50;10377929;28;20212;-77
2021/04/29 02:54:54;;;;;;;5.60;4.73;;;;;;;11.18;100.00;97654.97;10363103;28;20189;-77
2021/04/29 03:00:17;;;;;;;9.30;5.87;;;;;;;11.23;100.00;97648.13;10375794;28;20203;-77
2021/04/29 03:05:37;;;;;;;10.20;6.50;;;;;;;11.36;100.00;97651.69;10377543;28;20177;-77
2021/04/29 03:10:56;;;;;;;11.53;7.53;;;;;;;11.36;100.00;97657.97;10361889;28;20244;-78
2021/04/29 03:16:15;;;;;;;7.83;4.90;;;;;;;11.32;100.00;97660.06;10375774;28;20181;-77
2021/04/29 03:21:34;;;;;;;7.83;5.07;;;;;;;11.23;100.00;97662.69;10376917;28;20177;-77
2021/04/29 03:26:53;;;;;;;13.40;6.70;;;;;;;11.19;100.00;97664.75;10376657;28;20216;-76
2021/04/29 03:32:12;;;;;;;7.30;5.83;;;;;;;11.08;100.00;97673.75;10374740;28;20216;-77
2021/04/29 03:37:31;;;;;;;11.23;6.90;;;;;;;11.09;100.00;97678.06;10377748;28;20173;-77
2021/04/29 03:42:50;;;;;;;7.90;6.30;;;;;;;10.99;100.00;97682.63;10381111;28;20165;-77
2021/04/29 03:48:09;;;;;;;9.23;5.70;;;;;;;10.97;100.00;97700.78;10353157;28;20273;-77
2021/04/29 03:53:28;;;;;;;32.03;8.37;;;;;;;11.07;100.00;97689.47;10385954;28;20267;-77
2021/04/29 03:58:47;;;;;;;11.90;6.53;;;;;;;11.09;100.00;97692.56;10382962;28;20188;-76
2021/04/29 04:04:06;;;;;;;12.60;8.87;;;;;;;10.97;100.00;97690.56;10387385;28;20180;-77
2021/04/29 04:09:25;;;;;;;10.07;6.57;;;;;;;11.01;100.00;97702.25;10379820;28;20216;-76
2021/04/29 04:14:44;;;;;;;9.47;7.30;;;;;;;11.10;100.00;97698.88;10377652;28;20180;-76
2021/04/29 04:20:04;;;;;;;11.07;5.80;;;;;;;11.11;100.00;97710.19;10380492;28;20185;-76
2021/04/29 04:25:23;;;;;;;7.73;6.67;;;;;;;10.94;100.00;97720.94;10387962;28;20240;-77
2021/04/29 04:30:42;;;;;;;10.47;7.00;;;;;;;11.03;100.00;97730.09;10371127;28;20212;-77
2021/04/29 04:36:01;;;;;;;12.93;7.17;;;;;;;10.98;100.00;97733.41;10384914;28;20172;-76
2021/04/29 04:41:21;;;;;;;9.37;5.87;;;;;;;11.05;100.00;97735.94;10385887;28;20714;-78
2021/04/29 04:46:40;;;;;;;9.87;6.20;;;;;;;10.96;100.00;97749.56;10380639;28;20291;-76
2021/04/29 04:51:58;;;;;;;7.53;4.70;;;;;;;10.88;100.00;97752.91;10378783;28;20209;-77
2021/04/29 04:57:19;;;;;;;9.87;4.50;;;;;;;10.83;100.00;97765.22;10364628;28;20176;-76
2021/04/29 05:02:39;;;;;;;6.20;4.77;;;;;;;10.93;100.00;97771.66;10385477;28;20207;-76
2021/04/29 05:08:00;;;;;;;4.00;3.63;;;;;;;10.76;100.00;97772.88;10366441;28;20216;-78
2021/04/29 05:13:19;;;;;;;4.60;3.20;;;;;;;10.80;100.00;97779.84;10386980;28;20184;-76
2021/04/29 05:18:38;;;;;;;5.47;4.17;;;;;;;10.84;100.00;97779.75;10382197;28;20623;-77
2021/04/29 05:23:57;;;;;;;6.40;4.70;;;;;;;10.83;100.00;97787.22;10390547;28;20237;-77
2021/04/29 05:29:16;;;;;;;5.20;3.30;;;;;;;10.90;100.00;97802.78;10389531;28;20608;-77
2021/04/29 05:34:37;;;;;;;7.57;3.70;;;;;;;10.89;100.00;97801.22;10388877;28;20177;-77
2021/04/29 05:39:56;;;;;;;2.60;1.93;;;;;;;10.88;100.00;97813.44;10373754;28;20251;-78
2021/04/29 05:45:16;;;;;;;3.60;3.30;;;;;;;10.92;100.00;97803.13;10384495;28;20223;-76
2021/04/29 05:50:34;;;;;;;7.80;4.63;;;;;;;10.91;100.00;97807.06;10381508;28;20208;-77
2021/04/29 05:55:53;;;;;;;4.30;2.33;;;;;;;10.93;100.00;97804.69;10366770;28;20185;-78
2021/04/29 06:01:12;;;;;;;4.13;3.50;;;;;;;10.90;100.00;97822.81;10380648;28;20274;-77
2021/04/29 06:06:31;;;;;;;4.63;4.23;;;;;;;10.94;100.00;97814.47;10382816;28;20180;-78
2021/04/29 06:11:50;;;;;;;3.87;2.43;;;;;;;10.94;100.00;97834.50;10382222;28;20208;-76
2021/04/29 06:17:09;;;;;;;3.43;3.13;;;;;;;11.00;100.00;97837.50;10380378;28;20181;-76
2021/04/29 06:22:29;;;;;;;8.30;4.73;;;;;;;11.03;100.00;97842.91;10383858;28;20181;-77
2021/04/29 06:27:47;;;;;;;5.20;4.70;;;;;;;11.06;100.00;97842.06;10380144;28;20216;-77
2021/04/29 06:33:07;;;;;;;5.90;2.83;;;;;;;11.10;100.00;97846.25;10384549;28;20189;-76
2021/04/29 06:38:26;;;;;;;4.90;2.80;;;;;;;11.21;100.00;97849.50;10383426;28;20181;-77
2021/04/29 06:43:45;;;;;;;5.20;4.80;;;;;;;11.20;100.00;97869.97;10377273;28;20188;-76
2021/04/29 06:49:04;;;;;;;7.60;4.90;;;;;;;11.34;100.00;97871.59;10377333;28;20232;-76
2021/04/29 06:54:22;;;;;;;3.57;1.73;;;;;;;11.57;100.00;97866.69;10377856;28;20189;-76
2021/04/29 06:59:42;;;;;;;5.50;3.90;;;;;;;11.96;100.00;97875.41;10376446;28;20176;-75
2021/04/29 07:05:01;;;;;;;4.90;2.60;;;;;;;11.90;100.00;97883.88;10377541;28;20655;-78
2021/04/29 07:10:21;;;;;;;3.70;2.73;;;;;;;11.82;100.00;97885.28;10377068;28;20278;-78
2021/04/29 07:15:40;;;;;;;36.80;4.17;;;;;;;12.50;100.00;97880.88;10374841;28;20177;-78
2021/04/29 07:20:59;;;;;;;4.90;3.23;;;;;;;13.04;100.00;97885.88;10376201;28;20176;-78
2021/04/29 07:26:19;;;;;;;3.80;3.50;;;;;;;13.32;100.00;97884.94;10361887;28;20212;-77
2021/04/29 07:31:38;;;;;;;3.40;2.10;;;;;;;13.56;100.00;97895.16;10374764;28;20213;-78
2021/04/29 07:36:59;;;;;;;3.93;2.33;;;;;;;13.47;100.00;97901.81;10374869;28;20185;-75
2021/04/29 07:42:17;;;;;;;4.63;2.30;;;;;;;13.44;100.00;97889.66;10321930;28;20173;-75
2021/04/29 07:47:36;;;;;;;2.50;1.57;;;;;;;13.59;100.00;97888.72;10320143;28;20225;-76
2021/04/29 07:52:55;;;;;;;2.97;2.37;;;;;;;13.73;100.00;97890.22;10320902;28;20690;-78
2021/04/29 07:58:14;;;;;;;1.87;1.37;;;;;;;13.72;100.00;97895.00;10336223;28;20249;-78
2021/04/29 08:03:33;;;;;;;3.47;2.83;;;;;;;14.10;100.00;97908.63;10335428;28;20256;-79
2021/04/29 08:08:52;;;;;;;5.30;3.57;;;;;;;15.35;100.00;97893.41;10321156;28;20201;-77
2021/04/29 08:14:11;;;;;;;3.37;2.53;;;;;;;14.88;91.91;97894.16;10355349;28;20197;-78
2021/04/29 08:19:30;;;;;;;3.87;1.90;;;;;;;13.52;100.00;97898.47;10360934;28;20627;-79
2021/04/29 08:24:49;;;;;;;28.23;2.40;;;;;;;14.06;100.00;97902.44;10359969;28;20196;-80
2021/04/29 08:30:08;;;;;;;2.80;1.90;;;;;;;14.65;95.51;97909.31;10374091;28;20208;-75
2021/04/29 08:35:29;;;;;;;2.83;2.10;;;;;;;14.31;98.96;97922.47;10359639;28;20177;-77
2021/04/29 08:40:49;;;;;;;3.00;1.50;;;;;;;14.41;95.25;97915.78;10374287;28;20181;-75
2021/04/29 08:46:08;;;;;;;2.57;1.87;;;;;;;14.72;92.45;97911.00;10372519;28;20220;-79
2021/04/29 08:51:28;;;;;;;2.50;1.83;;;;;;;14.36;89.58;97924.66;10373398;28;20212;-77
2021/04/29 08:56:47;;;;;;;1.30;0.80;;;;;;;15.05;85.29;97928.69;10380133;28;20180;-77
2021/04/29 09:02:06;;;;;;;1.30;1.00;;;;;;;14.96;81.71;97934.97;10386091;28;20180;-76
2021/04/29 09:07:24;;;;;;;2.23;1.93;;;;;;;15.43;77.75;97925.13;10387282;28;20181;-76
2021/04/29 09:12:44;;;;;;;1.63;1.53;;;;;;;15.10;68.52;97917.78;10358534;28;20188;-77
2021/04/29 09:18:20;;;;;;;2.20;2.00;;;;;;;15.10;67.62;97922.56;10354810;28;20191;-76
2021/04/29 09:23:48;;;;;;;4.93;1.80;;;;;;;14.52;68.62;97936.28;10386630;28;20240;-76
2021/04/29 09:29:14;;;;;;;2.00;1.80;;;;;;;14.98;68.35;97928.97;10385355;28;20209;-78
2021/04/29 09:34:38;;;;;;;2.93;1.80;;;;;;;15.69;66.08;97936.75;10386655;28;20180;-76
2021/04/29 09:39:59;;;;;;;5.97;1.83;;;;;;;16.59;62.08;97929.16;10386702;28;20173;-75
2021/04/29 09:45:28;;;;;;;2.37;1.90;;;;;;;16.71;59.79;97942.09;10384907;28;20641;-74
2021/04/29 09:50:50;;;;;;;2.50;1.33;;;;;;;15.76;60.40;97936.44;10385965;28;20204;-76
2021/04/29 09:56:11;;;;;;;4.33;2.50;;;;;;;15.92;62.69;97928.59;10386194;28;20177;-76
2021/04/29 10:01:31;;;;;;;2.20;1.73;;;;;;;16.44;60.06;97917.94;10384955;28;20615;-76
2021/04/29 10:06:50;;;;;;;2.23;1.67;;;;;;;16.40;59.94;97911.00;10384592;28;20185;-77
2021/04/29 10:12:12;;;;;;;2.40;1.67;;;;;;;16.14;60.78;97913.31;10379077;28;20204;-76
2021/04/29 10:17:31;;;;;;;3.60;2.63;;;;;;;15.72;65.03;97931.06;10363421;28;20177;-79
2021/04/29 10:22:51;;;;;;;4.30;2.10;;;;;;;15.14;64.35;97916.41;10379065;28;20200;-74
2021/04/29 10:28:10;;;;;;;3.10;2.20;;;;;;;14.83;66.81;97919.69;10378996;28;20738;-75
2021/04/29 10:33:35;;;;;;;3.53;1.83;;;;;;;15.43;64.80;97918.84;10363021;28;20706;-77
2021/04/29 10:38:54;;;;;;;5.00;2.03;;;;;;;15.93;64.63;97907.19;10378233;28;20272;-78
2021/04/29 10:44:19;;;;;;;2.97;2.30;;;;;;;16.14;61.38;97899.44;10362055;28;20177;-78
2021/04/29 10:49:42;;;;;;;2.80;2.50;;;;;;;16.41;57.93;97898.66;10378046;28;20666;-77
2021/04/29 10:55:01;;;;;;;4.73;3.67;;;;;;;17.62;55.55;97884.41;10378028;28;20176;-76
2021/04/29 11:00:20;;;;;;;3.27;2.67;;;;;;;16.41;56.25;97882.78;10361653;28;20292;-76
2021/04/29 11:05:40;;;;;;;2.53;2.33;;;;;;;16.26;56.55;97887.44;10376605;28;20188;-77
2021/04/29 11:10:59;;;;;;;2.77;1.87;;;;;;;15.77;57.69;97885.31;10376801;28;20574;-77
2021/04/29 11:16:19;;;;;;;4.40;1.67;;;;;;;15.35;58.46;97900.97;10375921;28;20188;-77
2021/04/29 11:21:38;;;;;;;2.40;2.20;;;;;;;15.27;59.14;97906.00;10376255;28;20177;-77
2021/04/29 11:26:56;;;;;;;2.37;2.17;;;;;;;15.35;60.68;97901.72;10376409;28;20193;-76
2021/04/29 11:32:18;;;;;;;3.50;1.90;;;;;;;15.44;61.58;97904.50;10374820;28;20569;-77
2021/04/29 11:37:44;;;;;;;2.40;1.93;;;;;;;16.11;60.47;97905.91;10376473;28;20627;-75
2021/04/29 11:43:05;;;;;;;3.10;2.90;;;;;;;16.54;60.57;97893.72;10376149;28;20189;-77
2021/04/29 11:48:24;;;;;;;4.40;3.37;;;;;;;16.90;57.77;97878.44;10373875;28;20232;-79
2021/04/29 11:53:44;;;;;;;5.13;3.47;;;;;;;16.55;60.75;97892.47;10375861;28;20184;-79
2021/04/29 11:59:05;;;;;;;3.83;2.70;;;;;;;16.23;61.54;97890.38;10373924;28;20188;-78
2021/04/29 12:04:25;;;;;;;3.20;3.00;;;;;;;15.91;62.96;97910.44;10375436;28;20188;-78
2021/04/29 12:09:51;;;;;;;4.30;2.60;;;;;;;15.47;66.83;97906.38;10374840;28;20707;-76
2021/04/29 12:15:12;;;;;;;3.37;3.00;;;;;;;15.11;67.94;97894.41;10373861;28;20188;-75
2021/04/29 12:20:31;;;;;;;3.70;2.70;;;;;;;14.95;67.64;97899.41;10374907;28;20184;-77
2021/04/29 12:26:02;;;;;;;10.93;4.10;;;;;;;15.31;67.25;97892.78;10374652;28;20204;-75
2021/04/29 12:31:22;;;;;;;2.53;2.33;;;;;;;15.52;64.28;97902.22;10357072;28;20204;-77
2021/04/29 12:36:53;;;;;;;3.30;2.47;;;;;;;15.57;64.33;97904.38;10374218;28;20264;-78
2021/04/29 12:42:18;;;;;;;7.03;3.33;;;;;;;15.18;66.60;97896.88;10374327;28;20251;-79
2021/04/29 12:47:37;;;;;;;3.63;3.33;;;;;;;15.38;65.55;97902.81;10357557;28;20699;-76
2021/04/29 12:52:59;;;;;;;3.50;3.20;;;;;;;15.11;65.52;97899.16;10373949;28;20188;-76
2021/04/29 12:58:29;;;;;;;3.60;3.20;;;;;;;15.28;67.08;97904.78;10373936;28;20219;-77
2021/04/29 13:03:50;;;;;;;5.37;3.80;;;;;;;15.28;66.91;97915.88;10373865;28;20173;-76
2021/04/29 13:09:09;;;;;;;3.73;2.90;;;;;;;16.22;62.98;97913.78;10358824;28;20287;-78
2021/04/29 13:14:30;;;;;;;4.13;3.67;;;;;;;16.93;58.43;97905.31;10372066;28;20204;-77
2021/04/29 13:20:10;;;;;;;3.83;2.80;;;;;;;16.98;55.59;97903.88;10373476;28;20181;-78
2021/04/29 13:25:31;;;;;;;5.73;2.60;;;;;;;16.57;56.23;97907.44;10373469;28;20200;-77
2021/04/29 13:30:50;;;;;;;2.33;2.13;;;;;;;16.10;56.52;97906.41;10371753;28;20787;-77
2021/04/29 13:36:11;;;;;;;2.80;2.10;;;;;;;16.52;56.43;97921.91;10373264;28;20252;-76
2021/04/29 13:41:30;;;;;;;3.00;2.70;;;;;;;16.53;54.36;97909.59;10359058;28;20203;-76
2021/04/29 13:46:49;;;;;;;2.60;2.00;;;;;;;17.08;49.73;97908.19;10379259;28;20686;-77
2021/04/29 13:52:08;;;;;;;1.70;1.60;;;;;;;16.84;46.63;97915.66;10365062;28;20298;-77
2021/04/29 13:57:27;;;;;;;2.00;1.90;;;;;;;16.23;48.67;97920.88;10380393;28;20220;-76
2021/04/29 14:02:46;;;;;;;2.63;2.37;;;;;;;16.13;50.02;97917.34;10378686;28;20185;-76
2021/04/29 14:08:06;;;;;;;2.73;1.97;;;;;;;16.02;50.92;97914.28;10379814;28;20540;-76
2021/04/29 14:13:25;;;;;;;2.20;2.03;;;;;;;16.02;49.44;97925.38;10379709;28;20177;-77
2021/04/29 14:18:44;;;;;;;4.47;2.90;;;;;;;16.14;49.03;97918.13;10379380;28;20193;-76
2021/04/29 14:24:04;;;;;;;2.13;1.90;;;;;;;15.78;49.32;97928.44;10379082;28;20232;-77
2021/04/29 14:29:23;;;;;;;3.57;2.40;;;;;;;15.41;51.04;97944.25;10362646;28;20205;-75
2021/04/29 14:34:42;;;;;;;3.20;2.03;;;;;;;14.95;54.95;97990.81;10364042;28;20538;-76
2021/04/29 14:40:01;;;;;;;2.00;1.90;;;;;;;12.85;74.23;98021.31;10378690;28;20181;-75
2021/04/29 14:45:22;;;;;;;1.23;1.13;;;;;;;11.96;85.31;97999.41;10377388;28;20228;-77
2021/04/29 14:50:41;;;;;;;3.33;1.90;;;;;;;11.97;79.54;97964.38;10377963;28;20291;-76
2021/04/29 14:55:59;;;;;;;3.73;1.77;;;;;;;12.27;78.93;97952.88;10361960;28;20181;-75
2021/04/29 15:01:19;;;;;;;2.23;1.77;;;;;;;12.83;81.71;97952.75;10361472;28;20184;-75
2021/04/29 15:06:37;;;;;;;2.30;1.60;;;;;;;13.71;78.13;97953.44;10362734;28;20185;-77
2021/04/29 15:11:56;;;;;;;3.07;2.40;;;;;;;13.65;80.82;97958.78;10362194;28;20208;-78
2021/04/29 15:17:15;;;;;;;3.10;2.30;;;;;;;14.13;79.32;97955.56;10361043;28;20243;-78
2021/04/29 15:22:34;;;;;;;3.90;1.60;;;;;;;13.59;80.56;97960.56;10376931;28;20675;-78
2021/04/29 15:27:54;;;;;;;5.40;3.13;;;;;;;14.40;79.61;97948.22;10376763;28;20188;-80
2021/04/29 15:33:13;;;;;;;3.40;3.10;;;;;;;14.10;77.66;97948.13;10375533;28;20193;-79
2021/04/29 15:38:32;;;;;;;2.60;2.40;;;;;;;13.71;76.92;97965.28;10376478;28;20177;-79
2021/04/29 15:43:52;;;;;;;2.07;1.93;;;;;;;14.12;74.80;97958.75;10374906;28;20208;-78
2021/04/29 15:49:12;;;;;;;4.80;3.73;;;;;;;14.03;76.00;97956.66;10375248;28;20232;-80
2021/04/29 15:54:31;;;;;;;35.87;3.63;;;;;;;14.38;75.55;97960.94;10375584;28;20176;-78
2021/04/29 15:59:50;;;;;;;2.80;2.30;;;;;;;14.93;72.20;97971.13;10374380;28;20632;-79
2021/04/29 16:05:13;;;;;;;2.90;2.60;;;;;;;14.82;70.46;97974.28;10375024;28;20173;-77
2021/04/29 16:10:32;;;;;;;5.80;3.17;;;;;;;15.20;68.21;97970.00;10346351;28;20663;-77
2021/04/29 16:15:51;;;;;;;2.97;2.77;;;;;;;15.01;69.04;97969.63;10373817;28;20212;-78
2021/04/29 16:21:11;;;;;;;5.53;2.70;;;;;;;14.80;68.71;97971.22;10374678;28;20266;-77
2021/04/29 16:26:30;;;;;;;3.57;2.30;;;;;;;14.25;68.02;97976.84;10374584;28;20173;-77
2021/04/29 16:31:49;;;;;;;2.30;2.10;;;;;;;14.39;68.76;97973.56;10372948;28;20208;-77
2021/04/29 16:37:08;;;;;;;3.90;2.83;;;;;;;14.45;70.26;97969.75;10374469;28;20180;-78
2021/04/29 16:42:27;;;;;;;6.40;3.10;;;;;;;14.35;69.72;97972.94;10374250;28;20181;-77
2021/04/29 16:47:46;;;;;;;10.37;2.77;;;;;;;14.33;68.82;97975.38;10372415;28;20232;-76
2021/04/29 16:53:05;;;;;;;3.83;1.93;;;;;;;14.33;66.93;97983.66;10373877;28;20544;-79
2021/04/29 16:58:24;;;;;;;5.30;3.40;;;;;;;14.26;67.92;97972.84;10373920;28;20204;-79
2021/04/29 17:03:43;;;;;;;3.40;2.60;;;;;;;14.19;67.20;97981.41;10358857;28;20227;-78
2021/04/29 17:09:02;;;;;;;3.57;2.80;;;;;;;14.23;66.55;97976.50;10373574;28;20216;-79
2021/04/29 17:14:23;;;;;;;5.67;3.10;;;;;;;14.72;64.25;97983.00;10372284;28;20188;-78
2021/04/29 17:19:42;;;;;;;4.50;2.77;;;;;;;14.64;62.60;97979.72;10380321;28;20185;-77
2021/04/29 17:25:01;;;;;;;3.23;2.33;;;;;;;14.99;61.61;97999.75;10381447;28;20180;-77
2021/04/29 17:30:22;;;;;;;4.00;2.53;;;;;;;15.45;60.76;97991.97;10364812;28;20208;-77
2021/04/29 17:35:41;;;;;;;3.10;2.40;;;;;;;15.99;56.13;97989.31;10381180;28;20168;-77
2021/04/29 17:41:02;;;;;;;4.03;2.03;;;;;;;16.00;54.77;98008.28;10380842;28;20766;-77
2021/04/29 17:46:21;;;;;;;3.87;2.40;;;;;;;14.91;56.92;98015.09;10364733;28;20578;-76
2021/04/29 17:51:40;;;;;;;1.73;1.53;;;;;;;14.66;56.31;98021.56;10380069;28;20251;-77
2021/04/29 17:56:59;;;;;;;7.43;1.63;;;;;;;14.55;49.28;98032.25;10380341;28;20255;-77
2021/04/29 18:02:18;;;;;;;1.80;1.67;;;;;;;14.49;42.51;98041.59;10378854;28;20169;-77
2021/04/29 18:07:38;;;;;;;3.50;1.20;;;;;;;14.27;43.01;98051.88;10379841;28;20176;-77
2021/04/29 18:12:57;;;;;;;3.70;1.40;;;;;;;14.23;42.25;98047.66;10378943;28;20291;-77
2021/04/29 18:18:16;;;;;;;3.83;1.97;;;;;;;14.16;41.68;98059.75;10363515;28;20216;-78
2021/04/29 18:23:35;;;;;;;6.23;2.30;;;;;;;14.07;42.62;98067.16;10379197;28;20189;-77
2021/04/29 18:28:55;;;;;;;6.20;2.07;;;;;;;13.94;43.37;98077.47;10377421;28;20205;-77
2021/04/29 18:34:14;;;;;;;5.67;2.40;;;;;;;13.78;44.91;98088.66;10364023;28;20231;-78
2021/04/29 18:39:33;;;;;;;2.07;1.90;;;;;;;13.58;49.97;98094.41;10363894;28;20169;-77
2021/04/29 18:44:52;;;;;;;3.07;2.80;;;;;;;13.20;53.48;98108.66;10361900;28;20299;-78
2021/04/29 18:50:13;;;;;;;4.07;2.73;;;;;;;12.97;55.35;98123.50;10377868;28;20208;-79
2021/04/29 18:55:32;;;;;;;2.30;2.10;;;;;;;12.64;58.07;98137.81;10363013;28;20690;-79
2021/04/29 19:00:51;;;;;;;4.80;4.40;;;;;;;12.59;57.96;98146.66;10376510;28;20209;-77
2021/04/29 19:06:10;;;;;;;3.47;2.57;;;;;;;12.32;59.58;98175.72;10362933;28;20173;-79
2021/04/29 19:11:29;;;;;;;3.73;2.63;;;;;;;11.93;61.65;98186.16;10361831;28;20204;-78
2021/04/29 19:16:48;;;;;;;3.50;2.67;;;;;;;11.49;62.83;98194.97;10360776;28;20237;-78
2021/04/29 19:22:07;;;;;;;5.33;2.57;;;;;;;11.44;62.21;98220.28;10377037;28;20297;-78
2021/04/29 19:27:26;;;;;;;3.50;2.47;;;;;;;11.22;62.58;98230.19;10376720;28;20173;-76
2021/04/29 19:32:48;;;;;;;3.40;2.03;;;;;;;10.87;63.64;98230.06;10374781;28;20204;-76
2021/04/29 19:38:07;;;;;;;1.80;1.70;;;;;;;10.69;63.77;98251.63;10361314;28;20176;-78
2021/04/29 19:43:26;;;;;;;3.00;2.30;;;;;;;10.61;63.84;98264.72;10375727;28;20188;-78
2021/04/29 19:48:46;;;;;;;2.70;2.13;;;;;;;10.36;64.79;98269.09;10375146;28;20220;-77
2021/04/29 19:54:08;;;;;;;3.20;1.80;;;;;;;10.10;64.00;98285.56;10375405;28;20204;-76
2021/04/29 19:59:27;;;;;;;1.93;1.70;;;;;;;10.15;64.03;98296.13;10374691;28;20189;-76
2021/04/29 20:04:46;;;;;;;1.60;1.50;;;;;;;10.05;63.35;98311.56;10375265;28;20176;-78
2021/04/29 20:10:06;;;;;;;1.67;1.57;;;;;;;9.87;64.12;98321.19;10375031;28;20212;-76
2021/04/29 20:15:25;;;;;;;3.13;1.93;;;;;;;9.62;64.25;98331.72;10373621;28;20173;-76
2021/04/29 20:20:44;;;;;;;2.27;2.07;;;;;;;9.47;63.54;98332.31;10374784;28;20671;-76
2021/04/29 20:26:03;;;;;;;5.73;1.97;;;;;;;9.24;64.04;98343.91;10374623;28;20172;-76
2021/04/29 20:31:22;;;;;;;2.60;2.40;;;;;;;9.22;64.12;98354.53;10372920;28;20576;-76
2021/04/29 20:36:41;;;;;;;2.50;2.30;;;;;;;9.14;65.16;98355.00;10374436;28;20612;-75
2021/04/29 20:42:00;;;;;;;2.83;1.50;;;;;;;8.88;66.73;98367.38;10373313;28;20815;-78
2021/04/29 20:47:20;;;;;;;1.97;1.10;;;;;;;8.86;66.65;98390.91;10357623;28;20633;-76
2021/04/29 20:52:39;;;;;;;1.73;1.63;;;;;;;8.67;67.89;98385.19;10357610;28;20216;-76
2021/04/29 20:57:58;;;;;;;3.30;2.30;;;;;;;8.55;68.65;98396.66;10373979;28;20264;-77
2021/04/29 21:03:17;;;;;;;2.50;2.30;;;;;;;8.49;69.18;98406.47;10372529;28;20647;-77
2021/04/29 21:08:37;;;;;;;4.10;1.87;;;;;;;8.20;70.65;98399.59;10373738;28;20196;-77
2021/04/29 21:13:55;;;;;;;2.43;1.80;;;;;;;8.21;70.78;98410.16;10372329;28;20185;-77
2021/04/29 21:19:14;;;;;;;2.67;2.10;;;;;;;8.25;70.25;98404.66;10373472;28;20671;-77
2021/04/29 21:24:34;;;;;;;1.90;1.70;;;;;;;8.11;70.23;98408.25;10373403;28;20251;-77
2021/04/29 21:29:52;;;;;;;2.87;2.57;;;;;;;7.97;70.57;98413.75;10370925;28;20208;-76
2021/04/29 21:35:11;;;;;;;3.17;2.87;;;;;;;7.79;72.27;98411.50;10373167;28;20181;-76
2021/04/29 21:40:30;;;;;;;2.93;2.00;;;;;;;7.76;72.49;98418.53;10373230;28;20188;-76
2021/04/29 21:45:53;;;;;;;5.53;2.63;;;;;;;7.63;72.74;98419.38;10356734;28;20221;-79
2021/04/29 21:51:12;;;;;;;3.33;2.70;;;;;;;7.37;73.85;98433.50;10372337;28;20216;-77
2021/04/29 21:56:31;;;;;;;2.13;1.90;;;;;;;7.26;74.57;98440.94;10372622;28;20180;-76
2021/04/29 22:01:50;;;;;;;4.90;2.27;;;;;;;7.27;74.17;98451.47;10371479;28;20252;-78
2021/04/29 22:07:15;;;;;;;6.20;1.37;;;;;;;7.09;75.27;98455.41;10380264;28;20208;-76
2021/04/29 22:12:34;;;;;;;2.97;2.10;;;;;;;7.03;75.53;98458.94;10364354;28;20217;-76
2021/04/29 22:17:54;;;;;;;1.90;1.80;;;;;;;7.08;75.89;98464.78;10377417;28;20185;-76
2021/04/29 22:23:14;;;;;;;2.70;2.07;;;;;;;7.07;75.20;98465.19;10364533;28;20180;-75
2021/04/29 22:28:34;;;;;;;2.03;1.83;;;;;;;7.05;75.27;98478.47;10364029;28;20534;-76
2021/04/29 22:33:53;;;;;;;2.57;2.37;;;;;;;6.92;75.77;98478.06;10379082;28;20169;-78
2021/04/29 22:39:13;;;;;;;7.10;2.60;;;;;;;6.66;77.46;98480.38;10363763;28;20181;-77
2021/04/29 22:44:32;;;;;;;3.70;3.20;;;;;;;6.61;77.38;98494.44;10377211;28;20227;-77
2021/04/29 22:49:52;;;;;;;4.67;2.47;;;;;;;6.51;77.39;98495.19;10363114;28;20216;-75
2021/04/29 22:55:15;;;;;;;3.00;2.00;;;;;;;6.35;77.75;98503.72;10363179;28;20205;-76
2021/04/29 23:00:34;;;;;;;2.80;2.27;;;;;;;6.24;78.67;98509.53;10361873;28;20173;-76
2021/04/29 23:05:53;;;;;;;4.00;2.00;;;;;;;6.14;79.04;98513.00;10362973;28;20209;-76
2021/04/29 23:11:12;;;;;;;5.20;4.60;;;;;;;6.02;78.93;98522.31;10376046;28;20659;-76
2021/04/29 23:16:32;;;;;;;2.10;1.90;;;;;;;5.93;79.73;98530.06;10375112;28;20576;-75
2021/04/29 23:21:51;;;;;;;8.53;2.27;;;;;;;5.99;81.34;98527.75;10362069;28;20200;-75
2021/04/29 23:27:10;;;;;;;2.23;1.90;;;;;;;6.04;80.50;98530.91;10376842;28;20220;-78
2021/04/29 23:32:29;;;;;;;3.70;1.97;;;;;;;6.04;80.08;98536.38;10374978;28;20617;-78
2021/04/29 23:37:48;;;;;;;2.53;2.33;;;;;;;5.78;81.24;98533.06;10376285;28;20188;-78
2021/04/29 23:43:06;;;;;;;4.13;1.83;;;;;;;5.82;82.00;98539.34;10375394;28;20184;-78
2021/04/29 23:48:25;;;;;;;3.00;1.60;;;;;;;5.93;81.46;98537.47;10374281;28;20228;-78
2021/04/29 23:53:44;;;;;;;5.80;2.97;;;;;;;5.87;81.41;98537.06;10360996;28;20177;-79
2021/04/29 23:59:03;;;;;;;4.50;3.63;;;;;;;5.83;82.55;98538.19;10374513;28;20640;-77
